sensor_id;sensor_type;location;lat;lon;timestamp;P1;durP1;ratioP1;P2;durP2;ratioP2
55497;SDS011;41357;52.806;18.268;2023-04-30T00:02:02;15.65;;;9.70;;
55497;SDS011;41357;52.806;18.268;2023-04-30T00:04:28;18.15;;;9.27;;
55497;SDS011;41357;52.806;18.268;2023-04-30T00:06:54;19.63;;;9.13;;
55497;SDS011;41357;52.806;18.268;2023-04-30T00:09:20;16.63;;;9.07;;
55497;SDS011;41357;52.806;18.268;2023-04-30T00:11:46;15.55;;;9.18;;
55497;SDS011;41357;52.806;18.268;2023-04-30T00:14:13;18.40;;;10.05;;
55497;SDS011;41357;52.806;18.268;2023-04-30T00:16:39;21.92;;;10.13;;
55497;SDS011;41357;52.806;18.268;2023-04-30T00:19:05;16.65;;;9.52;;
55497;SDS011;41357;52.806;18.268;2023-04-30T00:21:32;18.65;;;9.75;;
55497;SDS011;41357;52.806;18.268;2023-04-30T00:23:58;18.35;;;9.95;;
55497;SDS011;41357;52.806;18.268;2023-04-30T00:26:24;17.23;;;8.77;;
55497;SDS011;41357;52.806;18.268;2023-04-30T00:28:51;18.05;;;7.32;;
55497;SDS011;41357;52.806;18.268;2023-04-30T00:31:17;15.75;;;9.07;;
55497;SDS011;41357;52.806;18.268;2023-04-30T00:33:43;20.38;;;9.57;;
55497;SDS011;41357;52.806;18.268;2023-04-30T00:36:09;17.65;;;8.52;;
55497;SDS011;41357;52.806;18.268;2023-04-30T00:38:35;18.98;;;9.00;;
55497;SDS011;41357;52.806;18.268;2023-04-30T00:41:01;15.27;;;7.82;;
55497;SDS011;41357;52.806;18.268;2023-04-30T00:43:27;16.13;;;7.78;;
55497;SDS011;41357;52.806;18.268;2023-04-30T00:45:53;18.42;;;9.90;;
55497;SDS011;41357;52.806;18.268;2023-04-30T00:48:20;15.23;;;8.90;;
55497;SDS011;41357;52.806;18.268;2023-04-30T00:50:46;16.02;;;8.82;;
55497;SDS011;41357;52.806;18.268;2023-04-30T00:53:12;15.98;;;7.80;;
55497;SDS011;41357;52.806;18.268;2023-04-30T00:55:39;18.65;;;9.00;;
55497;SDS011;41357;52.806;18.268;2023-04-30T00:58:06;16.55;;;8.75;;
55497;SDS011;41357;52.806;18.268;2023-04-30T01:00:32;16.95;;;9.05;;
55497;SDS011;41357;52.806;18.268;2023-04-30T01:02:59;25.15;;;9.93;;
55497;SDS011;41357;52.806;18.268;2023-04-30T01:05:25;16.92;;;9.48;;
55497;SDS011;41357;52.806;18.268;2023-04-30T01:07:51;14.70;;;8.85;;
55497;SDS011;41357;52.806;18.268;2023-04-30T01:10:18;20.27;;;9.55;;
55497;SDS011;41357;52.806;18.268;2023-04-30T01:17:51;16.48;;;9.23;;
55497;SDS011;41357;52.806;18.268;2023-04-30T01:20:19;16.90;;;8.65;;
55497;SDS011;41357;52.806;18.268;2023-04-30T01:22:49;20.58;;;9.75;;
55497;SDS011;41357;52.806;18.268;2023-04-30T01:28:14;20.38;;;9.65;;
55497;SDS011;41357;52.806;18.268;2023-04-30T01:30:41;16.02;;;8.85;;
55497;SDS011;41357;52.806;18.268;2023-04-30T01:33:09;17.92;;;8.55;;
55497;SDS011;41357;52.806;18.268;2023-04-30T01:35:44;19.73;;;9.70;;
55497;SDS011;41357;52.806;18.268;2023-04-30T01:46:28;27.25;;;8.73;;
55497;SDS011;41357;52.806;18.268;2023-04-30T01:49:01;18.13;;;8.63;;
55497;SDS011;41357;52.806;18.268;2023-04-30T01:51:35;23.05;;;9.93;;
55497;SDS011;41357;52.806;18.268;2023-04-30T01:54:05;21.85;;;8.88;;
55497;SDS011;41357;52.806;18.268;2023-04-30T01:56:39;18.50;;;8.43;;
55497;SDS011;41357;52.806;18.268;2023-04-30T01:59:08;15.48;;;9.52;;
55497;SDS011;41357;52.806;18.268;2023-04-30T02:01:34;17.25;;;8.63;;
55497;SDS011;41357;52.806;18.268;2023-04-30T02:04:00;17.65;;;9.13;;
55497;SDS011;41357;52.806;18.268;2023-04-30T02:06:27;19.90;;;9.07;;
55497;SDS011;41357;52.806;18.268;2023-04-30T02:08:54;17.60;;;9.15;;
55497;SDS011;41357;52.806;18.268;2023-04-30T02:11:23;18.15;;;9.35;;
55497;SDS011;41357;52.806;18.268;2023-04-30T02:13:49;16.35;;;8.43;;
55497;SDS011;41357;52.806;18.268;2023-04-30T02:16:15;16.67;;;8.15;;
55497;SDS011;41357;52.806;18.268;2023-04-30T02:18:42;16.55;;;8.65;;
55497;SDS011;41357;52.806;18.268;2023-04-30T02:21:08;18.45;;;9.70;;
55497;SDS011;41357;52.806;18.268;2023-04-30T02:23:34;20.42;;;9.30;;
55497;SDS011;41357;52.806;18.268;2023-04-30T02:26:00;22.52;;;9.27;;
55497;SDS011;41357;52.806;18.268;2023-04-30T02:28:27;14.52;;;8.38;;
55497;SDS011;41357;52.806;18.268;2023-04-30T02:30:53;20.40;;;9.02;;
55497;SDS011;41357;52.806;18.268;2023-04-30T02:33:19;21.38;;;8.55;;
55497;SDS011;41357;52.806;18.268;2023-04-30T02:35:45;19.55;;;9.02;;
55497;SDS011;41357;52.806;18.268;2023-04-30T02:38:11;13.13;;;7.18;;
55497;SDS011;41357;52.806;18.268;2023-04-30T02:40:39;18.95;;;7.95;;
55497;SDS011;41357;52.806;18.268;2023-04-30T02:43:05;18.52;;;7.95;;
55497;SDS011;41357;52.806;18.268;2023-04-30T02:45:31;16.83;;;8.40;;
55497;SDS011;41357;52.806;18.268;2023-04-30T02:47:58;13.25;;;7.95;;
55497;SDS011;41357;52.806;18.268;2023-04-30T02:50:24;15.65;;;8.23;;
55497;SDS011;41357;52.806;18.268;2023-04-30T02:52:50;16.30;;;7.88;;
55497;SDS011;41357;52.806;18.268;2023-04-30T02:55:16;17.25;;;8.07;;
55497;SDS011;41357;52.806;18.268;2023-04-30T02:57:42;13.25;;;7.63;;
55497;SDS011;41357;52.806;18.268;2023-04-30T03:00:09;14.95;;;7.95;;
55497;SDS011;41357;52.806;18.268;2023-04-30T03:02:35;18.77;;;7.80;;
55497;SDS011;41357;52.806;18.268;2023-04-30T03:05:01;13.85;;;8.40;;
55497;SDS011;41357;52.806;18.268;2023-04-30T03:07:28;16.10;;;8.52;;
55497;SDS011;41357;52.806;18.268;2023-04-30T03:09:54;15.35;;;7.32;;
55497;SDS011;41357;52.806;18.268;2023-04-30T03:12:20;15.50;;;7.93;;
55497;SDS011;41357;52.806;18.268;2023-04-30T03:14:46;19.73;;;8.25;;
55497;SDS011;41357;52.806;18.268;2023-04-30T03:17:12;12.23;;;6.93;;
55497;SDS011;41357;52.806;18.268;2023-04-30T03:19:38;18.15;;;8.98;;
55497;SDS011;41357;52.806;18.268;2023-04-30T03:22:04;14.07;;;7.22;;
55497;SDS011;41357;52.806;18.268;2023-04-30T03:24:31;16.90;;;6.68;;
55497;SDS011;41357;52.806;18.268;2023-04-30T03:26:57;17.98;;;7.57;;
55497;SDS011;41357;52.806;18.268;2023-04-30T03:29:23;14.55;;;6.85;;
55497;SDS011;41357;52.806;18.268;2023-04-30T03:31:50;13.77;;;6.63;;
55497;SDS011;41357;52.806;18.268;2023-04-30T03:34:16;13.85;;;7.55;;
55497;SDS011;41357;52.806;18.268;2023-04-30T03:36:42;13.13;;;6.65;;
55497;SDS011;41357;52.806;18.268;2023-04-30T03:39:09;15.02;;;6.53;;
55497;SDS011;41357;52.806;18.268;2023-04-30T03:41:35;14.90;;;6.97;;
55497;SDS011;41357;52.806;18.268;2023-04-30T03:44:01;15.25;;;6.40;;
55497;SDS011;41357;52.806;18.268;2023-04-30T03:46:27;15.00;;;6.13;;
55497;SDS011;41357;52.806;18.268;2023-04-30T03:48:53;15.40;;;7.50;;
55497;SDS011;41357;52.806;18.268;2023-04-30T03:51:19;13.05;;;5.88;;
55497;SDS011;41357;52.806;18.268;2023-04-30T03:53:46;12.13;;;6.25;;
55497;SDS011;41357;52.806;18.268;2023-04-30T03:56:12;12.80;;;5.82;;
55497;SDS011;41357;52.806;18.268;2023-04-30T03:58:39;17.88;;;7.18;;
55497;SDS011;41357;52.806;18.268;2023-04-30T04:01:05;14.07;;;6.97;;
55497;SDS011;41357;52.806;18.268;2023-04-30T04:03:32;14.50;;;6.75;;
55497;SDS011;41357;52.806;18.268;2023-04-30T04:05:59;12.05;;;6.53;;
55497;SDS011;41357;52.806;18.268;2023-04-30T04:08:25;14.48;;;6.70;;
55497;SDS011;41357;52.806;18.268;2023-04-30T04:10:51;11.50;;;5.82;;
55497;SDS011;41357;52.806;18.268;2023-04-30T04:13:17;11.90;;;5.88;;
55497;SDS011;41357;52.806;18.268;2023-04-30T04:15:44;14.48;;;6.40;;
55497;SDS011;41357;52.806;18.268;2023-04-30T04:18:10;12.88;;;6.68;;
55497;SDS011;41357;52.806;18.268;2023-04-30T04:20:36;11.93;;;6.47;;
55497;SDS011;41357;52.806;18.268;2023-04-30T04:23:02;13.75;;;6.43;;
55497;SDS011;41357;52.806;18.268;2023-04-30T04:25:29;13.20;;;6.47;;
55497;SDS011;41357;52.806;18.268;2023-04-30T04:27:55;14.60;;;6.50;;
55497;SDS011;41357;52.806;18.268;2023-04-30T04:30:21;13.00;;;5.85;;
55497;SDS011;41357;52.806;18.268;2023-04-30T04:32:47;13.73;;;6.88;;
55497;SDS011;41357;52.806;18.268;2023-04-30T04:35:17;8.45;;;4.05;;
55497;SDS011;41357;52.806;18.268;2023-04-30T04:37:44;13.55;;;5.47;;
55497;SDS011;41357;52.806;18.268;2023-04-30T04:40:11;12.15;;;6.20;;
55497;SDS011;41357;52.806;18.268;2023-04-30T04:42:37;14.40;;;6.45;;
55497;SDS011;41357;52.806;18.268;2023-04-30T04:45:07;10.50;;;5.60;;
55497;SDS011;41357;52.806;18.268;2023-04-30T04:47:33;14.60;;;6.20;;
55497;SDS011;41357;52.806;18.268;2023-04-30T04:50:00;13.35;;;4.97;;
55497;SDS011;41357;52.806;18.268;2023-04-30T04:52:27;12.55;;;5.95;;
55497;SDS011;41357;52.806;18.268;2023-04-30T04:54:53;13.45;;;5.68;;
55497;SDS011;41357;52.806;18.268;2023-04-30T04:57:19;13.38;;;6.43;;
55497;SDS011;41357;52.806;18.268;2023-04-30T04:59:45;17.58;;;5.82;;
55497;SDS011;41357;52.806;18.268;2023-04-30T05:02:11;15.98;;;5.35;;
55497;SDS011;41357;52.806;18.268;2023-04-30T05:04:37;12.80;;;5.00;;
55497;SDS011;41357;52.806;18.268;2023-04-30T05:07:04;11.35;;;4.32;;
55497;SDS011;41357;52.806;18.268;2023-04-30T05:09:30;10.07;;;4.07;;
55497;SDS011;41357;52.806;18.268;2023-04-30T05:11:56;7.97;;;3.72;;
55497;SDS011;41357;52.806;18.268;2023-04-30T05:14:22;10.27;;;3.80;;
55497;SDS011;41357;52.806;18.268;2023-04-30T05:16:48;7.95;;;3.33;;
55497;SDS011;41357;52.806;18.268;2023-04-30T05:19:14;11.68;;;4.05;;
55497;SDS011;41357;52.806;18.268;2023-04-30T05:21:40;7.55;;;3.83;;
55497;SDS011;41357;52.806;18.268;2023-04-30T05:24:06;6.70;;;2.35;;
55497;SDS011;41357;52.806;18.268;2023-04-30T05:26:33;15.45;;;4.43;;
55497;SDS011;41357;52.806;18.268;2023-04-30T05:28:59;6.05;;;2.58;;
55497;SDS011;41357;52.806;18.268;2023-04-30T05:31:25;3.85;;;2.38;;
55497;SDS011;41357;52.806;18.268;2023-04-30T05:33:51;10.18;;;2.42;;
55497;SDS011;41357;52.806;18.268;2023-04-30T05:36:17;6.43;;;3.22;;
55497;SDS011;41357;52.806;18.268;2023-04-30T05:38:43;10.82;;;3.17;;
55497;SDS011;41357;52.806;18.268;2023-04-30T05:41:12;6.93;;;3.13;;
55497;SDS011;41357;52.806;18.268;2023-04-30T05:43:38;8.30;;;2.83;;
55497;SDS011;41357;52.806;18.268;2023-04-30T05:46:05;6.30;;;2.58;;
55497;SDS011;41357;52.806;18.268;2023-04-30T05:48:31;7.35;;;2.70;;
55497;SDS011;41357;52.806;18.268;2023-04-30T05:50:57;13.25;;;2.85;;
55497;SDS011;41357;52.806;18.268;2023-04-30T05:53:23;9.75;;;2.75;;
55497;SDS011;41357;52.806;18.268;2023-04-30T05:55:49;10.68;;;2.88;;
55497;SDS011;41357;52.806;18.268;2023-04-30T05:58:15;6.50;;;2.72;;
55497;SDS011;41357;52.806;18.268;2023-04-30T06:00:41;10.23;;;2.50;;
55497;SDS011;41357;52.806;18.268;2023-04-30T06:03:07;9.02;;;3.28;;
55497;SDS011;41357;52.806;18.268;2023-04-30T06:05:34;8.30;;;2.60;;
55497;SDS011;41357;52.806;18.268;2023-04-30T06:08:00;6.55;;;2.10;;
55497;SDS011;41357;52.806;18.268;2023-04-30T06:10:26;7.95;;;3.58;;
55497;SDS011;41357;52.806;18.268;2023-04-30T06:12:52;4.97;;;2.75;;
55497;SDS011;41357;52.806;18.268;2023-04-30T06:15:18;8.43;;;2.85;;
55497;SDS011;41357;52.806;18.268;2023-04-30T06:17:44;7.85;;;2.70;;
55497;SDS011;41357;52.806;18.268;2023-04-30T06:20:11;7.28;;;2.15;;
55497;SDS011;41357;52.806;18.268;2023-04-30T06:22:38;6.35;;;2.05;;
55497;SDS011;41357;52.806;18.268;2023-04-30T06:25:05;8.70;;;2.45;;
55497;SDS011;41357;52.806;18.268;2023-04-30T06:27:31;5.70;;;2.33;;
55497;SDS011;41357;52.806;18.268;2023-04-30T06:29:58;11.23;;;3.05;;
55497;SDS011;41357;52.806;18.268;2023-04-30T06:32:25;8.13;;;2.85;;
55497;SDS011;41357;52.806;18.268;2023-04-30T06:34:51;4.25;;;2.47;;
55497;SDS011;41357;52.806;18.268;2023-04-30T06:37:17;8.25;;;2.67;;
55497;SDS011;41357;52.806;18.268;2023-04-30T06:39:43;10.50;;;2.50;;
55497;SDS011;41357;52.806;18.268;2023-04-30T06:42:10;5.68;;;2.40;;
55497;SDS011;41357;52.806;18.268;2023-04-30T06:44:36;10.65;;;2.05;;
55497;SDS011;41357;52.806;18.268;2023-04-30T06:47:02;6.93;;;2.10;;
55497;SDS011;41357;52.806;18.268;2023-04-30T06:49:28;7.57;;;2.22;;
55497;SDS011;41357;52.806;18.268;2023-04-30T06:51:54;5.40;;;1.95;;
55497;SDS011;41357;52.806;18.268;2023-04-30T06:54:22;8.05;;;2.30;;
55497;SDS011;41357;52.806;18.268;2023-04-30T06:56:50;7.75;;;2.55;;
55497;SDS011;41357;52.806;18.268;2023-04-30T06:59:17;5.20;;;1.90;;
55497;SDS011;41357;52.806;18.268;2023-04-30T07:01:43;12.23;;;3.95;;
55497;SDS011;41357;52.806;18.268;2023-04-30T07:04:09;5.68;;;2.17;;
55497;SDS011;41357;52.806;18.268;2023-04-30T07:06:35;8.48;;;2.28;;
55497;SDS011;41357;52.806;18.268;2023-04-30T07:09:02;10.98;;;2.85;;
55497;SDS011;41357;52.806;18.268;2023-04-30T07:11:28;5.80;;;2.33;;
55497;SDS011;41357;52.806;18.268;2023-04-30T07:13:54;6.00;;;2.10;;
55497;SDS011;41357;52.806;18.268;2023-04-30T07:16:21;6.80;;;2.97;;
55497;SDS011;41357;52.806;18.268;2023-04-30T07:18:47;5.25;;;2.15;;
55497;SDS011;41357;52.806;18.268;2023-04-30T07:21:14;8.25;;;2.88;;
55497;SDS011;41357;52.806;18.268;2023-04-30T07:23:40;5.22;;;1.40;;
55497;SDS011;41357;52.806;18.268;2023-04-30T07:26:08;7.03;;;2.35;;
55497;SDS011;41357;52.806;18.268;2023-04-30T07:28:34;7.32;;;2.80;;
55497;SDS011;41357;52.806;18.268;2023-04-30T07:31:00;7.15;;;3.20;;
55497;SDS011;41357;52.806;18.268;2023-04-30T07:33:27;4.82;;;2.08;;
55497;SDS011;41357;52.806;18.268;2023-04-30T07:35:53;4.28;;;2.22;;
55497;SDS011;41357;52.806;18.268;2023-04-30T07:38:21;8.90;;;2.42;;
55497;SDS011;41357;52.806;18.268;2023-04-30T07:40:47;5.35;;;2.15;;
55497;SDS011;41357;52.806;18.268;2023-04-30T07:43:14;6.05;;;2.50;;
55497;SDS011;41357;52.806;18.268;2023-04-30T07:45:40;4.03;;;1.88;;
55497;SDS011;41357;52.806;18.268;2023-04-30T07:48:06;4.30;;;1.75;;
55497;SDS011;41357;52.806;18.268;2023-04-30T07:50:32;6.80;;;2.28;;
55497;SDS011;41357;52.806;18.268;2023-04-30T07:52:59;5.15;;;1.58;;
55497;SDS011;41357;52.806;18.268;2023-04-30T07:55:25;10.20;;;2.17;;
55497;SDS011;41357;52.806;18.268;2023-04-30T07:57:51;5.78;;;1.88;;
55497;SDS011;41357;52.806;18.268;2023-04-30T08:00:17;6.30;;;2.00;;
55497;SDS011;41357;52.806;18.268;2023-04-30T08:02:44;4.07;;;1.73;;
55497;SDS011;41357;52.806;18.268;2023-04-30T08:05:12;5.68;;;2.63;;
55497;SDS011;41357;52.806;18.268;2023-04-30T08:07:38;8.40;;;1.85;;
55497;SDS011;41357;52.806;18.268;2023-04-30T08:10:05;6.05;;;1.90;;
55497;SDS011;41357;52.806;18.268;2023-04-30T08:12:34;3.17;;;1.30;;
55497;SDS011;41357;52.806;18.268;2023-04-30T08:15:04;10.88;;;2.20;;
55497;SDS011;41357;52.806;18.268;2023-04-30T08:17:32;6.97;;;2.78;;
55497;SDS011;41357;52.806;18.268;2023-04-30T08:19:59;7.85;;;2.20;;
55497;SDS011;41357;52.806;18.268;2023-04-30T08:22:25;4.95;;;2.00;;
55497;SDS011;41357;52.806;18.268;2023-04-30T08:24:51;3.97;;;1.50;;
55497;SDS011;41357;52.806;18.268;2023-04-30T08:27:19;3.00;;;1.48;;
55497;SDS011;41357;52.806;18.268;2023-04-30T08:29:46;1.38;;;0.63;;
55497;SDS011;41357;52.806;18.268;2023-04-30T08:32:12;2.72;;;1.23;;
55497;SDS011;41357;52.806;18.268;2023-04-30T08:34:38;6.43;;;2.25;;
55497;SDS011;41357;52.806;18.268;2023-04-30T08:37:07;2.33;;;0.82;;
55497;SDS011;41357;52.806;18.268;2023-04-30T08:39:34;3.83;;;1.23;;
55497;SDS011;41357;52.806;18.268;2023-04-30T08:42:03;2.20;;;0.82;;
55497;SDS011;41357;52.806;18.268;2023-04-30T08:44:32;3.03;;;1.27;;
55497;SDS011;41357;52.806;18.268;2023-04-30T08:47:00;2.40;;;1.23;;
55497;SDS011;41357;52.806;18.268;2023-04-30T08:49:26;2.65;;;1.10;;
55497;SDS011;41357;52.806;18.268;2023-04-30T08:51:56;5.50;;;1.63;;
55497;SDS011;41357;52.806;18.268;2023-04-30T08:54:24;3.85;;;1.52;;
55497;SDS011;41357;52.806;18.268;2023-04-30T08:56:51;3.45;;;1.05;;
55497;SDS011;41357;52.806;18.268;2023-04-30T08:59:17;4.20;;;1.90;;
55497;SDS011;41357;52.806;18.268;2023-04-30T09:01:43;6.25;;;1.13;;
55497;SDS011;41357;52.806;18.268;2023-04-30T09:04:09;5.65;;;1.23;;
55497;SDS011;41357;52.806;18.268;2023-04-30T09:06:36;1.98;;;0.95;;
55497;SDS011;41357;52.806;18.268;2023-04-30T09:09:12;2.15;;;0.80;;
55497;SDS011;41357;52.806;18.268;2023-04-30T09:11:39;4.47;;;1.10;;
55497;SDS011;41357;52.806;18.268;2023-04-30T09:14:05;2.92;;;1.17;;
55497;SDS011;41357;52.806;18.268;2023-04-30T09:21:49;7.55;;;1.52;;
55497;SDS011;41357;52.806;18.268;2023-04-30T09:24:16;6.15;;;1.33;;
55497;SDS011;41357;52.806;18.268;2023-04-30T09:26:42;6.07;;;1.95;;
55497;SDS011;41357;52.806;18.268;2023-04-30T09:29:11;2.60;;;1.23;;
55497;SDS011;41357;52.806;18.268;2023-04-30T09:31:37;5.10;;;1.80;;
55497;SDS011;41357;52.806;18.268;2023-04-30T09:34:03;4.75;;;1.20;;
55497;SDS011;41357;52.806;18.268;2023-04-30T09:36:30;5.15;;;1.20;;
55497;SDS011;41357;52.806;18.268;2023-04-30T09:39:04;3.13;;;1.35;;
55497;SDS011;41357;52.806;18.268;2023-04-30T09:41:31;5.30;;;1.30;;
55497;SDS011;41357;52.806;18.268;2023-04-30T09:43:57;4.63;;;0.90;;
55497;SDS011;41357;52.806;18.268;2023-04-30T09:46:33;5.70;;;1.25;;
55497;SDS011;41357;52.806;18.268;2023-04-30T09:49:02;3.78;;;1.30;;
55497;SDS011;41357;52.806;18.268;2023-04-30T09:51:28;4.53;;;1.52;;
55497;SDS011;41357;52.806;18.268;2023-04-30T09:53:56;3.15;;;0.98;;
55497;SDS011;41357;52.806;18.268;2023-04-30T09:56:25;5.55;;;1.67;;
55497;SDS011;41357;52.806;18.268;2023-04-30T09:58:54;3.45;;;1.48;;
55497;SDS011;41357;52.806;18.268;2023-04-30T10:01:22;2.78;;;1.23;;
55497;SDS011;41357;52.806;18.268;2023-04-30T10:03:50;3.00;;;0.80;;
55497;SDS011;41357;52.806;18.268;2023-04-30T10:06:17;2.58;;;1.05;;
55497;SDS011;41357;52.806;18.268;2023-04-30T10:08:47;3.85;;;1.40;;
55497;SDS011;41357;52.806;18.268;2023-04-30T10:11:17;6.23;;;1.80;;
55497;SDS011;41357;52.806;18.268;2023-04-30T10:19:03;3.80;;;0.98;;
55497;SDS011;41357;52.806;18.268;2023-04-30T10:23:58;2.05;;;1.00;;
55497;SDS011;41357;52.806;18.268;2023-04-30T10:26:24;3.72;;;1.20;;
55497;SDS011;41357;52.806;18.268;2023-04-30T10:28:51;3.13;;;0.98;;
55497;SDS011;41357;52.806;18.268;2023-04-30T10:31:17;4.63;;;1.50;;
55497;SDS011;41357;52.806;18.268;2023-04-30T10:39:02;2.47;;;1.25;;
55497;SDS011;41357;52.806;18.268;2023-04-30T10:41:29;6.82;;;1.40;;
55497;SDS011;41357;52.806;18.268;2023-04-30T10:43:56;3.60;;;1.20;;
55497;SDS011;41357;52.806;18.268;2023-04-30T10:46:25;2.33;;;1.10;;
55497;SDS011;41357;52.806;18.268;2023-04-30T10:48:53;4.15;;;1.33;;
55497;SDS011;41357;52.806;18.268;2023-04-30T10:51:19;7.10;;;1.15;;
55497;SDS011;41357;52.806;18.268;2023-04-30T10:53:48;4.03;;;1.30;;
55497;SDS011;41357;52.806;18.268;2023-04-30T10:56:15;7.25;;;1.83;;
55497;SDS011;41357;52.806;18.268;2023-04-30T10:58:57;1.83;;;1.10;;
55497;SDS011;41357;52.806;18.268;2023-04-30T11:01:23;3.55;;;1.48;;
55497;SDS011;41357;52.806;18.268;2023-04-30T11:09:34;3.15;;;0.90;;
55497;SDS011;41357;52.806;18.268;2023-04-30T11:12:02;3.15;;;1.00;;
55497;SDS011;41357;52.806;18.268;2023-04-30T11:14:30;3.40;;;1.33;;
55497;SDS011;41357;52.806;18.268;2023-04-30T11:16:58;1.73;;;1.10;;
55497;SDS011;41357;52.806;18.268;2023-04-30T11:19:27;4.90;;;1.10;;
55497;SDS011;41357;52.806;18.268;2023-04-30T11:27:18;4.47;;;1.48;;
55497;SDS011;41357;52.806;18.268;2023-04-30T11:29:44;3.38;;;1.42;;
55497;SDS011;41357;52.806;18.268;2023-04-30T11:32:11;2.13;;;1.20;;
55497;SDS011;41357;52.806;18.268;2023-04-30T11:34:38;2.17;;;1.00;;
55497;SDS011;41357;52.806;18.268;2023-04-30T11:37:05;5.18;;;1.38;;
55497;SDS011;41357;52.806;18.268;2023-04-30T11:39:32;4.93;;;1.20;;
55497;SDS011;41357;52.806;18.268;2023-04-30T11:42:00;5.45;;;2.10;;
55497;SDS011;41357;52.806;18.268;2023-04-30T11:44:27;4.80;;;1.30;;
55497;SDS011;41357;52.806;18.268;2023-04-30T11:46:54;4.43;;;1.48;;
55497;SDS011;41357;52.806;18.268;2023-04-30T11:49:20;4.53;;;1.55;;
55497;SDS011;41357;52.806;18.268;2023-04-30T11:51:47;4.07;;;1.02;;
55497;SDS011;41357;52.806;18.268;2023-04-30T11:54:14;3.53;;;1.27;;
55497;SDS011;41357;52.806;18.268;2023-04-30T11:56:44;2.50;;;1.08;;
55497;SDS011;41357;52.806;18.268;2023-04-30T11:59:14;3.40;;;1.27;;
55497;SDS011;41357;52.806;18.268;2023-04-30T12:01:40;3.75;;;1.20;;
55497;SDS011;41357;52.806;18.268;2023-04-30T12:04:06;12.63;;;1.90;;
55497;SDS011;41357;52.806;18.268;2023-04-30T12:06:33;4.05;;;1.33;;
55497;SDS011;41357;52.806;18.268;2023-04-30T12:09:00;2.40;;;0.98;;
55497;SDS011;41357;52.806;18.268;2023-04-30T12:11:31;6.25;;;2.63;;
55497;SDS011;41357;52.806;18.268;2023-04-30T12:16:41;9.10;;;1.67;;
55497;SDS011;41357;52.806;18.268;2023-04-30T12:19:09;4.47;;;1.52;;
55497;SDS011;41357;52.806;18.268;2023-04-30T12:21:36;7.82;;;2.75;;
55497;SDS011;41357;52.806;18.268;2023-04-30T12:24:03;4.95;;;1.65;;
55497;SDS011;41357;52.806;18.268;2023-04-30T12:26:38;2.40;;;1.27;;
55497;SDS011;41357;52.806;18.268;2023-04-30T12:31:38;4.75;;;2.33;;
55497;SDS011;41357;52.806;18.268;2023-04-30T12:34:04;2.63;;;1.27;;
55497;SDS011;41357;52.806;18.268;2023-04-30T12:36:31;7.85;;;1.10;;
55497;SDS011;41357;52.806;18.268;2023-04-30T12:41:34;2.95;;;1.45;;
55497;SDS011;41357;52.806;18.268;2023-04-30T12:46:46;2.50;;;1.20;;
55497;SDS011;41357;52.806;18.268;2023-04-30T12:49:20;6.80;;;3.20;;
55497;SDS011;41357;52.806;18.268;2023-04-30T12:51:47;5.28;;;1.73;;
55497;SDS011;41357;52.806;18.268;2023-04-30T12:54:13;4.78;;;1.33;;
55497;SDS011;41357;52.806;18.268;2023-04-30T12:56:55;6.15;;;2.22;;
55497;SDS011;41357;52.806;18.268;2023-04-30T12:59:21;3.22;;;0.80;;
55497;SDS011;41357;52.806;18.268;2023-04-30T13:01:47;3.20;;;0.77;;
55497;SDS011;41357;52.806;18.268;2023-04-30T13:04:13;3.85;;;1.30;;
55497;SDS011;41357;52.806;18.268;2023-04-30T13:06:39;2.50;;;1.17;;
55497;SDS011;41357;52.806;18.268;2023-04-30T13:09:05;2.58;;;1.35;;
55497;SDS011;41357;52.806;18.268;2023-04-30T13:11:32;2.70;;;1.38;;
55497;SDS011;41357;52.806;18.268;2023-04-30T13:13:58;4.03;;;1.15;;
55497;SDS011;41357;52.806;18.268;2023-04-30T13:16:24;3.30;;;1.70;;
55497;SDS011;41357;52.806;18.268;2023-04-30T13:18:50;2.38;;;1.08;;
55497;SDS011;41357;52.806;18.268;2023-04-30T13:21:16;2.60;;;1.40;;
55497;SDS011;41357;52.806;18.268;2023-04-30T13:23:42;3.58;;;1.13;;
55497;SDS011;41357;52.806;18.268;2023-04-30T13:26:08;4.07;;;1.20;;
55497;SDS011;41357;52.806;18.268;2023-04-30T13:28:35;4.20;;;1.23;;
55497;SDS011;41357;52.806;18.268;2023-04-30T13:31:01;4.10;;;0.98;;
55497;SDS011;41357;52.806;18.268;2023-04-30T13:33:27;4.47;;;1.15;;
55497;SDS011;41357;52.806;18.268;2023-04-30T13:35:53;3.42;;;0.93;;
55497;SDS011;41357;52.806;18.268;2023-04-30T13:38:19;3.47;;;1.00;;
55497;SDS011;41357;52.806;18.268;2023-04-30T13:40:46;4.13;;;1.20;;
55497;SDS011;41357;52.806;18.268;2023-04-30T13:43:12;2.10;;;1.40;;
55497;SDS011;41357;52.806;18.268;2023-04-30T13:45:38;2.97;;;1.00;;
55497;SDS011;41357;52.806;18.268;2023-04-30T13:48:05;3.22;;;1.02;;
55497;SDS011;41357;52.806;18.268;2023-04-30T13:50:31;4.05;;;1.15;;
55497;SDS011;41357;52.806;18.268;2023-04-30T13:52:57;3.20;;;0.80;;
55497;SDS011;41357;52.806;18.268;2023-04-30T13:55:24;3.17;;;1.02;;
55497;SDS011;41357;52.806;18.268;2023-04-30T13:57:50;3.38;;;1.30;;
55497;SDS011;41357;52.806;18.268;2023-04-30T14:00:16;5.65;;;1.17;;
55497;SDS011;41357;52.806;18.268;2023-04-30T14:02:43;3.85;;;1.33;;
55497;SDS011;41357;52.806;18.268;2023-04-30T14:05:09;2.97;;;1.30;;
55497;SDS011;41357;52.806;18.268;2023-04-30T14:07:35;2.83;;;1.30;;
55497;SDS011;41357;52.806;18.268;2023-04-30T14:10:02;6.25;;;1.42;;
55497;SDS011;41357;52.806;18.268;2023-04-30T14:12:28;4.57;;;0.85;;
55497;SDS011;41357;52.806;18.268;2023-04-30T14:14:54;2.05;;;0.88;;
55497;SDS011;41357;52.806;18.268;2023-04-30T14:17:21;4.00;;;1.10;;
55497;SDS011;41357;52.806;18.268;2023-04-30T14:19:47;2.80;;;1.30;;
55497;SDS011;41357;52.806;18.268;2023-04-30T14:22:13;3.83;;;1.20;;
55497;SDS011;41357;52.806;18.268;2023-04-30T14:24:40;5.10;;;1.33;;
55497;SDS011;41357;52.806;18.268;2023-04-30T14:27:07;2.33;;;1.52;;
55497;SDS011;41357;52.806;18.268;2023-04-30T14:29:33;2.80;;;0.95;;
55497;SDS011;41357;52.806;18.268;2023-04-30T14:31:59;2.58;;;0.93;;
55497;SDS011;41357;52.806;18.268;2023-04-30T14:34:25;2.33;;;1.10;;
55497;SDS011;41357;52.806;18.268;2023-04-30T14:36:52;7.20;;;1.48;;
55497;SDS011;41357;52.806;18.268;2023-04-30T14:39:18;3.00;;;1.20;;
55497;SDS011;41357;52.806;18.268;2023-04-30T14:41:44;4.00;;;1.00;;
55497;SDS011;41357;52.806;18.268;2023-04-30T14:44:10;4.38;;;1.15;;
55497;SDS011;41357;52.806;18.268;2023-04-30T14:46:37;4.15;;;1.33;;
55497;SDS011;41357;52.806;18.268;2023-04-30T14:49:03;3.72;;;0.80;;
55497;SDS011;41357;52.806;18.268;2023-04-30T14:51:29;3.53;;;1.10;;
55497;SDS011;41357;52.806;18.268;2023-04-30T14:53:56;3.63;;;1.40;;
55497;SDS011;41357;52.806;18.268;2023-04-30T14:56:23;5.30;;;1.35;;
55497;SDS011;41357;52.806;18.268;2023-04-30T14:58:49;2.78;;;1.25;;
55497;SDS011;41357;52.806;18.268;2023-04-30T15:01:15;2.40;;;1.10;;
55497;SDS011;41357;52.806;18.268;2023-04-30T15:03:41;3.60;;;1.50;;
55497;SDS011;41357;52.806;18.268;2023-04-30T15:06:07;4.63;;;1.73;;
55497;SDS011;41357;52.806;18.268;2023-04-30T15:08:34;8.10;;;1.85;;
55497;SDS011;41357;52.806;18.268;2023-04-30T15:11:01;3.90;;;1.30;;
55497;SDS011;41357;52.806;18.268;2023-04-30T15:13:30;2.75;;;1.15;;
55497;SDS011;41357;52.806;18.268;2023-04-30T15:15:57;4.00;;;1.13;;
55497;SDS011;41357;52.806;18.268;2023-04-30T15:18:23;2.53;;;1.17;;
55497;SDS011;41357;52.806;18.268;2023-04-30T15:20:49;3.13;;;1.20;;
55497;SDS011;41357;52.806;18.268;2023-04-30T15:23:15;3.75;;;1.52;;